This is the latest recevied weather packets stored in our database for station/object AG1T-20. If no packets are shown the sender has not sent any weather packets the latest 10 day(s).
| Time | Temp. | Humidity | Pressure | Rain* | Wind** | Luminosity | Snow |
|---|---|---|---|---|---|---|---|
| 1777963805 | 15.56° C | 50% | 1011.1 hPa | 0 mm | - | 0 W/m² | - |
| 1777963205 | 15.56° C | 49% | 1011.1 hPa | 0 mm | - | 0 W/m² | - |
| 1777962605 | 15.56° C | 48% | 1011.1 hPa | 0 mm | - | 0 W/m² | - |
| 1777962005 | 15° C | 47% | 1011.1 hPa | 0 mm | - | 0 W/m² | - |
| 1777961405 | 13.89° C | 49% | 1011.1 hPa | 0 mm | - | 0 W/m² | - |
| 1777960805 | 12.78° C | 55% | 1011.1 hPa | 0 mm | - | 0 W/m² | - |
| 1777960205 | 12.22° C | 58% | 1010.3 hPa | 0 mm | - | 0 W/m² | - |
| 1777959605 | 12.22° C | 57% | 1010.3 hPa | 0 mm | - | 0 W/m² | - |
| 1777959005 | 12.22° C | 56% | 1010.3 hPa | 0 mm | - | 0 W/m² | - |
| 1777958405 | 13.89° C | 47% | 1010.3 hPa | 0 mm | - | 0 W/m² | - |
| 1777957805 | 13.89° C | 47% | 1010.3 hPa | 0 mm | - | 0 W/m² | - |
| 1777957205 | 13.89° C | 47% | 1010.3 hPa | 0 mm | - | 0 W/m² | - |
| 1777956605 | 13.89° C | 46% | 1010.2 hPa | 0 mm | - | 0 W/m² | - |
| 1777956005 | 14.44° C | 45% | 1010.2 hPa | 0 mm | - | 0 W/m² | - |
| 1777955405 | 13.89° C | 46% | 1010.2 hPa | 0 mm | - | 0 W/m² | - |
| 1777954805 | 13.89° C | 49% | 1010.2 hPa | 0 mm | - | 0 W/m² | - |
| 1777954205 | 13.33° C | 50% | 1010.2 hPa | 0 mm | - | 0 W/m² | - |
| 1777953605 | 13.33° C | 51% | 1010.2 hPa | 0 mm | - | 0 W/m² | - |
| 1777953005 | 13.33° C | 51% | 1009.5 hPa | 0 mm | - | 0 W/m² | - |
| 1777952405 | 13.89° C | 49% | 1009.5 hPa | 0 mm | - | 0 W/m² | - |
| 1777951805 | 13.89° C | 46% | 1009.5 hPa | 0 mm | - | 0 W/m² | - |
| 1777951205 | 14.44° C | 45% | 1009.5 hPa | 0 mm | - | 0 W/m² | - |
| 1777950605 | 13.89° C | 47% | 1009.5 hPa | 0 mm | - | 0 W/m² | - |
| 1777950005 | 14.44° C | 44% | 1009.5 hPa | 0 mm | - | 0 W/m² | - |
| 1777949405 | 15° C | 44% | 1009.2 hPa | 0 mm | - | 0 W/m² | - |
* Rain latest hour (hover to see other rain measurements)
** Current wind speed in m/s (hover to see current wind gust speed)